createdAt,value
2019-06-27T00:00:28.907Z,25.47
2019-06-27T00:02:56.945Z,25.69
2019-06-27T00:05:24.909Z,25.70
2019-06-27T00:07:52.951Z,25.61
2019-06-27T00:10:21.397Z,25.54
2019-06-27T00:12:49.219Z,25.58
2019-06-27T00:15:17.015Z,25.58
2019-06-27T00:17:44.866Z,25.54
2019-06-27T00:20:12.697Z,25.46
2019-06-27T00:22:41.400Z,25.31
2019-06-27T00:25:10.720Z,25.27
2019-06-27T00:27:38.505Z,25.15
2019-06-27T00:30:07.641Z,24.98
2019-06-27T00:32:35.524Z,24.89
2019-06-27T00:35:04.212Z,24.85
2019-06-27T00:37:32.011Z,24.92
2019-06-27T00:39:59.835Z,24.82
2019-06-27T00:42:27.673Z,24.74
2019-06-27T00:44:55.487Z,24.68
2019-06-27T00:47:24.660Z,24.62
2019-06-27T00:49:52.521Z,24.88
2019-06-27T00:52:20.332Z,24.71
2019-06-27T00:54:48.195Z,24.67
2019-06-27T00:57:16.252Z,24.63
2019-06-27T00:59:45.486Z,24.70
2019-06-27T01:02:13.295Z,24.76
2019-06-27T01:04:41.065Z,24.69
2019-06-27T01:07:08.863Z,24.38
2019-06-27T01:09:36.976Z,24.26
2019-06-27T01:12:05.301Z,24.29
2019-06-27T01:14:34.030Z,24.06
2019-06-27T01:17:01.839Z,24.11
2019-06-27T01:19:31.805Z,23.73
2019-06-27T01:21:59.580Z,23.62
2019-06-27T01:24:27.388Z,23.89
2019-06-27T01:26:55.211Z,23.67
2019-06-27T01:29:23.316Z,23.59
2019-06-27T01:31:51.488Z,23.56
2019-06-27T01:34:19.302Z,23.21
2019-06-27T01:36:47.098Z,23.03
2019-06-27T01:39:14.940Z,23.06
2019-06-27T01:41:42.841Z,22.95
2019-06-27T01:44:30.247Z,22.97
2019-06-27T01:46:58.935Z,22.84
2019-06-27T01:49:26.831Z,22.70
2019-06-27T01:51:55.568Z,22.75
2019-06-27T01:54:25.186Z,23.05
2019-06-27T01:56:52.985Z,22.52
2019-06-27T01:59:20.802Z,22.22
2019-06-27T02:01:50.312Z,22.00
2019-06-27T02:04:18.150Z,21.96
2019-06-27T02:06:46.985Z,22.20
2019-06-27T02:09:14.861Z,22.06
2019-06-27T02:11:42.711Z,21.71
2019-06-27T02:14:10.523Z,21.65
2019-06-27T02:16:38.432Z,21.61
2019-06-27T02:19:06.340Z,21.70
2019-06-27T02:21:34.170Z,21.44
2019-06-27T02:24:01.932Z,21.30
2019-06-27T02:26:29.764Z,21.56
2019-06-27T02:28:57.550Z,21.44
2019-06-27T02:31:25.387Z,21.25
2019-06-27T02:33:53.211Z,21.27
2019-06-27T02:36:21.112Z,21.24
2019-06-27T02:38:51.179Z,20.90
2019-06-27T02:41:18.977Z,20.72
2019-06-27T02:43:46.797Z,20.60
2019-06-27T02:46:14.602Z,20.79
2019-06-27T02:48:42.446Z,20.97
2019-06-27T02:51:10.388Z,20.91
2019-06-27T02:53:38.199Z,20.66
2019-06-27T02:56:06.129Z,20.56
2019-06-27T02:58:34.761Z,20.47
2019-06-27T03:01:02.627Z,20.46
2019-06-27T03:03:30.457Z,20.59
2019-06-27T03:05:58.279Z,20.48
2019-06-27T03:08:26.179Z,20.27
2019-06-27T03:10:54.061Z,20.27
2019-06-27T03:13:21.899Z,20.10
2019-06-27T03:15:49.935Z,19.93
2019-06-27T03:18:19.046Z,19.82
2019-06-27T03:20:46.920Z,19.77
2019-06-27T03:23:14.731Z,19.80
2019-06-27T03:25:44.378Z,19.81
2019-06-27T03:28:12.182Z,19.80
2019-06-27T03:30:40.018Z,19.83
2019-06-27T03:33:07.934Z,19.89
2019-06-27T03:35:35.737Z,19.89
2019-06-27T03:38:03.568Z,19.88
2019-06-27T03:40:31.460Z,19.86
2019-06-27T03:42:59.271Z,19.61
2019-06-27T03:45:27.080Z,19.35
2019-06-27T03:47:54.932Z,19.17
2019-06-27T03:50:22.693Z,19.15
2019-06-27T03:52:50.548Z,19.24
2019-06-27T03:55:18.741Z,19.30
2019-06-27T03:57:46.617Z,19.35
2019-06-27T04:00:25.058Z,19.32
2019-06-27T04:02:52.944Z,19.41
2019-06-27T04:05:20.745Z,19.55
2019-06-27T04:07:48.548Z,19.47
2019-06-27T04:10:17.916Z,19.34
2019-06-27T04:12:45.837Z,19.38
2019-06-27T04:15:13.862Z,19.40
2019-06-27T04:17:43.451Z,19.53
2019-06-27T04:20:11.416Z,19.62
2019-06-27T04:22:39.225Z,19.61
2019-06-27T04:25:08.163Z,19.56
2019-06-27T04:27:37.413Z,19.54
2019-06-27T04:30:06.811Z,19.53
2019-06-27T04:32:42.394Z,19.59
2019-06-27T04:35:11.424Z,19.62
2019-06-27T04:37:39.324Z,19.74
2019-06-27T04:40:08.795Z,19.95
2019-06-27T04:42:36.628Z,20.08
2019-06-27T04:45:05.416Z,20.13
2019-06-27T04:47:33.249Z,20.18
2019-06-27T04:50:01.120Z,20.30
2019-06-27T04:52:28.928Z,20.50
2019-06-27T04:54:56.762Z,20.18
2019-06-27T04:57:24.610Z,19.94
2019-06-27T04:59:54.362Z,19.51
2019-06-27T05:02:22.197Z,19.38
2019-06-27T05:04:50.023Z,19.36
2019-06-27T05:07:17.863Z,19.49
2019-06-27T05:09:45.721Z,19.40
2019-06-27T05:12:14.341Z,19.58
2019-06-27T05:14:42.163Z,19.63
2019-06-27T05:17:09.995Z,19.60
2019-06-27T05:19:37.887Z,19.60
2019-06-27T05:22:05.701Z,19.77
2019-06-27T05:24:33.915Z,19.98
2019-06-27T05:27:01.783Z,19.79
2019-06-27T05:29:29.684Z,19.91
2019-06-27T05:31:57.525Z,19.93
2019-06-27T05:34:25.362Z,19.94
2019-06-27T05:36:53.212Z,20.64
2019-06-27T05:39:21.409Z,20.80
2019-06-27T05:41:50.589Z,21.03
2019-06-27T05:44:18.834Z,21.35
2019-06-27T05:46:46.684Z,21.18
2019-06-27T05:49:16.912Z,21.24
2019-06-27T05:51:45.264Z,21.75
2019-06-27T05:54:13.096Z,22.15
2019-06-27T05:56:40.905Z,22.49
2019-06-27T05:59:08.744Z,23.21
2019-06-27T06:01:36.594Z,23.16
2019-06-27T06:04:04.678Z,22.83
2019-06-27T06:06:32.798Z,22.99
2019-06-27T06:09:00.615Z,23.67
2019-06-27T06:11:28.427Z,23.86
2019-06-27T06:13:56.251Z,24.85
2019-06-27T06:16:24.052Z,25.40
2019-06-27T06:18:51.885Z,26.11
2019-06-27T06:21:19.697Z,26.11
2019-06-27T06:23:49.458Z,27.04
2019-06-27T06:26:20.392Z,27.87
2019-06-27T06:28:48.559Z,26.58
2019-06-27T06:31:18.608Z,26.93
2019-06-27T06:33:47.552Z,26.69
2019-06-27T06:36:15.626Z,26.47
2019-06-27T06:38:43.438Z,26.59
2019-06-27T06:41:14.237Z,27.17
2019-06-27T06:43:42.354Z,29.77
2019-06-27T06:46:10.294Z,30.23
2019-06-27T06:48:38.398Z,28.31
2019-06-27T06:51:07.982Z,30.72
2019-06-27T06:53:35.894Z,29.99
2019-06-27T06:56:04.037Z,30.23
2019-06-27T06:58:32.720Z,29.11
2019-06-27T07:01:02.396Z,28.59
2019-06-27T07:03:30.268Z,30.50
2019-06-27T07:05:59.852Z,32.96
2019-06-27T07:08:27.646Z,33.79
2019-06-27T07:10:55.468Z,33.73
2019-06-27T07:13:23.431Z,33.74
2019-06-27T07:15:51.213Z,34.19
2019-06-27T07:18:19.140Z,32.67
2019-06-27T07:20:46.927Z,34.16
2019-06-27T07:23:16.222Z,36.16
2019-06-27T07:25:44.032Z,35.99
2019-06-27T07:28:11.860Z,36.54
2019-06-27T07:30:39.703Z,36.83
2019-06-27T07:33:10.175Z,36.42
2019-06-27T07:35:37.692Z,36.36
2019-06-27T07:38:05.572Z,35.66
2019-06-27T07:40:33.902Z,35.63
2019-06-27T07:43:01.761Z,36.61
2019-06-27T07:45:29.567Z,35.57
2019-06-27T07:47:58.560Z,33.92
2019-06-27T07:50:26.498Z,33.31
2019-06-27T07:52:54.459Z,34.99
2019-06-27T07:55:23.479Z,35.06
2019-06-27T07:57:51.570Z,36.08
2019-06-27T08:00:20.498Z,39.31
2019-06-27T08:02:48.396Z,39.23
2019-06-27T08:05:16.932Z,36.55
2019-06-27T08:07:44.740Z,38.12
2019-06-27T08:10:12.828Z,40.39
2019-06-27T08:12:42.534Z,42.67
2019-06-27T08:15:10.891Z,41.16
2019-06-27T08:17:38.724Z,41.94
2019-06-27T08:20:07.739Z,43.30
2019-06-27T08:22:35.605Z,44.98
2019-06-27T08:25:03.977Z,45.09
2019-06-27T08:27:31.826Z,44.45
2019-06-27T08:30:02.203Z,44.97
2019-06-27T08:32:30.397Z,46.71
2019-06-27T08:34:58.194Z,46.10
2019-06-27T08:37:25.997Z,46.52
2019-06-27T08:39:53.814Z,45.98
2019-06-27T08:42:21.623Z,44.93
2019-06-27T08:44:49.734Z,43.22
2019-06-27T08:47:17.569Z,45.49
2019-06-27T08:49:45.397Z,46.13
2019-06-27T08:52:13.250Z,45.94
2019-06-27T08:54:41.937Z,46.49
2019-06-27T08:57:09.709Z,43.11
2019-06-27T08:59:37.534Z,44.99
2019-06-27T09:02:09.144Z,46.81
2019-06-27T09:04:35.367Z,46.80
2019-06-27T09:07:03.506Z,47.60
2019-06-27T09:09:33.779Z,45.77
2019-06-27T09:12:01.580Z,48.27
2019-06-27T09:14:29.377Z,46.18
2019-06-27T09:16:57.183Z,46.23
2019-06-27T09:19:25.000Z,48.83
2019-06-27T09:21:52.829Z,48.72
2019-06-27T09:24:20.699Z,50.25
2019-06-27T09:26:48.572Z,52.02
2019-06-27T09:29:16.390Z,51.83
2019-06-27T09:31:44.285Z,51.15
2019-06-27T09:34:12.089Z,51.61
2019-06-27T09:36:40.137Z,52.74
2019-06-27T09:39:08.664Z,50.44
2019-06-27T09:41:36.471Z,51.66
2019-06-27T09:44:04.865Z,53.66
2019-06-27T09:46:32.683Z,54.41
2019-06-27T09:49:00.790Z,53.67
2019-06-27T09:51:28.709Z,52.84
2019-06-27T09:53:56.560Z,52.94
2019-06-27T09:56:24.374Z,52.93
2019-06-27T09:58:52.163Z,53.69
2019-06-27T10:01:22.109Z,53.78
2019-06-27T10:03:49.941Z,51.32
2019-06-27T10:06:17.778Z,48.20
2019-06-27T10:08:45.660Z,50.82
2019-06-27T10:11:13.495Z,52.84
2019-06-27T10:13:41.370Z,52.65
2019-06-27T10:16:09.218Z,53.56
2019-06-27T10:18:37.017Z,51.22
2019-06-27T10:21:05.027Z,53.58
2019-06-27T10:23:32.894Z,53.33
2019-06-27T10:26:00.859Z,53.06
2019-06-27T10:28:28.730Z,50.20
2019-06-27T10:30:56.689Z,49.10
2019-06-27T10:33:24.483Z,48.33
2019-06-27T10:35:52.332Z,51.27
2019-06-27T10:38:20.137Z,50.14
2019-06-27T10:40:47.995Z,52.78
2019-06-27T10:43:15.837Z,54.01
2019-06-27T10:45:43.782Z,53.14
2019-06-27T10:48:11.911Z,55.44
2019-06-27T10:50:39.734Z,53.79
2019-06-27T10:53:07.613Z,49.67
2019-06-27T10:55:35.473Z,53.45
2019-06-27T10:58:03.261Z,52.68
2019-06-27T11:00:31.127Z,51.57
2019-06-27T11:03:14.361Z,54.24
2019-06-27T11:05:28.701Z,53.90
2019-06-27T11:07:56.828Z,50.79
2019-06-27T11:10:24.629Z,52.41
2019-06-27T11:12:52.513Z,48.09
2019-06-27T11:15:22.140Z,47.42
2019-06-27T11:17:50.051Z,49.25
2019-06-27T11:20:18.029Z,51.89
2019-06-27T11:22:45.852Z,52.95
2019-06-27T11:25:14.302Z,51.05
2019-06-27T11:27:42.109Z,52.30
2019-06-27T11:30:10.748Z,52.91
2019-06-27T11:32:38.813Z,54.22
2019-06-27T11:35:06.882Z,51.85
2019-06-27T11:37:34.673Z,52.66
2019-06-27T11:40:03.618Z,54.55
2019-06-27T11:42:31.458Z,55.23
2019-06-27T11:44:59.319Z,53.41
2019-06-27T11:47:27.154Z,51.60
2019-06-27T11:49:59.968Z,51.40
2019-06-27T11:52:27.758Z,46.13
2019-06-27T11:54:55.634Z,44.96
2019-06-27T11:57:24.104Z,45.49
2019-06-27T11:59:51.924Z,50.98
2019-06-27T12:02:19.758Z,48.85
2019-06-27T12:04:47.608Z,47.42
2019-06-27T12:07:15.506Z,47.38
2019-06-27T12:09:43.359Z,47.04
2019-06-27T12:12:11.164Z,46.30
2019-06-27T12:14:38.984Z,45.55
2019-06-27T12:17:06.799Z,46.80
2019-06-27T12:19:34.640Z,50.19
2019-06-27T12:22:02.498Z,49.21
2019-06-27T12:24:30.316Z,52.86
2019-06-27T12:26:58.260Z,49.86
2019-06-27T12:29:26.126Z,51.06
2019-06-27T12:31:54.052Z,54.12
2019-06-27T12:34:21.870Z,50.66
2019-06-27T12:36:49.705Z,48.95
2019-06-27T12:39:17.517Z,49.79
2019-06-27T12:41:45.310Z,51.27
2019-06-27T12:44:13.131Z,51.54
2019-06-27T12:46:40.924Z,48.61
2019-06-27T12:49:08.717Z,48.25
2019-06-27T12:51:37.744Z,51.48
2019-06-27T12:54:05.592Z,52.33
2019-06-27T12:56:33.499Z,51.44
2019-06-27T12:59:01.392Z,51.82
2019-06-27T13:01:29.430Z,51.79
2019-06-27T13:03:57.248Z,51.83
2019-06-27T13:06:25.061Z,50.38
2019-06-27T13:08:52.891Z,50.37
2019-06-27T13:11:20.823Z,47.85
2019-06-27T13:13:48.810Z,46.19
2019-06-27T13:16:16.634Z,44.52
2019-06-27T13:18:44.442Z,44.23
2019-06-27T13:21:12.245Z,42.20
2019-06-27T13:23:40.155Z,45.23
2019-06-27T13:26:09.053Z,46.69
2019-06-27T13:28:37.398Z,47.07
2019-06-27T13:31:05.215Z,47.49
2019-06-27T13:33:33.026Z,46.93
2019-06-27T13:36:00.850Z,45.42
2019-06-27T13:38:28.738Z,43.74
2019-06-27T13:40:56.679Z,41.74
2019-06-27T13:43:27.355Z,38.13
2019-06-27T13:45:55.188Z,36.79
2019-06-27T13:48:22.985Z,35.31
2019-06-27T13:50:50.837Z,34.43
2019-06-27T13:53:18.648Z,33.63
2019-06-27T13:55:46.449Z,32.84
2019-06-27T13:58:14.258Z,32.43
2019-06-27T14:00:45.938Z,32.40
2019-06-27T14:03:13.771Z,31.75
2019-06-27T14:05:41.805Z,31.38
2019-06-27T14:08:09.656Z,30.66
2019-06-27T14:10:37.454Z,30.12
2019-06-27T14:13:05.317Z,30.24
2019-06-27T14:15:33.224Z,30.22
2019-06-27T14:18:01.030Z,30.02
2019-06-27T14:20:28.848Z,29.77
2019-06-27T14:22:56.687Z,29.73
2019-06-27T14:25:24.537Z,29.67
2019-06-27T14:27:52.329Z,29.63
2019-06-27T14:30:21.399Z,30.01
2019-06-27T14:32:53.141Z,29.58
2019-06-27T14:35:19.050Z,29.50
2019-06-27T14:37:46.859Z,29.43
2019-06-27T14:40:16.563Z,29.49
2019-06-27T14:42:44.410Z,29.29
2019-06-27T14:45:13.967Z,29.44
2019-06-27T14:47:41.768Z,29.54
2019-06-27T14:50:09.950Z,29.53
2019-06-27T14:52:38.478Z,29.68
2019-06-27T14:55:07.665Z,29.37
2019-06-27T14:57:35.667Z,29.20
2019-06-27T15:00:04.915Z,29.14
2019-06-27T15:02:32.816Z,29.08
2019-06-27T15:05:00.643Z,28.96
2019-06-27T15:07:28.466Z,28.98
2019-06-27T15:09:56.349Z,29.03
2019-06-27T15:12:24.681Z,29.01
2019-06-27T15:14:52.513Z,29.26
2019-06-27T15:17:20.357Z,29.22
2019-06-27T15:19:48.201Z,28.96
2019-06-27T15:22:16.039Z,29.13
2019-06-27T15:24:43.839Z,29.38
2019-06-27T15:27:11.741Z,29.26
2019-06-27T15:29:39.636Z,28.95
2019-06-27T15:32:07.551Z,29.06
2019-06-27T15:34:37.297Z,28.99
2019-06-27T15:37:05.338Z,28.86
2019-06-27T15:39:33.154Z,28.96
2019-06-27T15:42:01.023Z,29.23
2019-06-27T15:44:29.803Z,29.33
2019-06-27T15:46:57.633Z,29.21
2019-06-27T15:49:25.462Z,29.05
2019-06-27T15:51:53.279Z,28.98
2019-06-27T15:54:21.148Z,29.01
2019-06-27T15:56:48.993Z,28.62
2019-06-27T15:59:16.774Z,28.44
2019-06-27T16:01:44.615Z,28.48
2019-06-27T16:04:27.914Z,28.28
2019-06-27T16:06:42.197Z,28.44
2019-06-27T16:09:10.514Z,28.72
2019-06-27T16:11:38.403Z,28.49
2019-06-27T16:14:06.340Z,28.69
2019-06-27T16:16:34.250Z,28.78
2019-06-27T16:19:02.097Z,28.75
2019-06-27T16:21:29.943Z,28.63
2019-06-27T16:23:57.761Z,28.65
2019-06-27T16:26:25.623Z,28.54
2019-06-27T16:28:53.481Z,28.32
2019-06-27T16:31:21.305Z,28.16
2019-06-27T16:33:49.140Z,27.99
2019-06-27T16:36:25.305Z,27.85
2019-06-27T16:38:46.662Z,27.77
2019-06-27T16:41:14.494Z,27.57
2019-06-27T16:43:42.335Z,27.56
2019-06-27T16:46:10.484Z,27.57
2019-06-27T16:48:38.257Z,27.58
2019-06-27T16:51:06.082Z,28.03
2019-06-27T16:53:33.881Z,27.88
2019-06-27T16:56:01.774Z,27.70
2019-06-27T16:58:32.018Z,27.59
2019-06-27T17:00:59.851Z,27.85
2019-06-27T17:03:27.695Z,28.03
2019-06-27T17:05:55.861Z,28.17
2019-06-27T17:08:23.880Z,28.18
2019-06-27T17:10:51.707Z,27.85
2019-06-27T17:13:19.590Z,28.03
2019-06-27T17:15:47.443Z,27.96
2019-06-27T17:18:15.250Z,27.59
2019-06-27T17:20:43.452Z,27.43
2019-06-27T17:23:11.214Z,27.35
2019-06-27T17:25:39.293Z,27.18
2019-06-27T17:28:07.129Z,27.04
2019-06-27T17:30:35.210Z,26.90
2019-06-27T17:33:03.013Z,26.77
2019-06-27T17:35:30.857Z,26.78
2019-06-27T17:37:58.652Z,26.69
2019-06-27T17:40:26.461Z,26.71
2019-06-27T17:42:54.280Z,26.68
2019-06-27T17:45:22.085Z,26.66
2019-06-27T17:47:49.902Z,26.54
2019-06-27T17:50:18.637Z,26.56
2019-06-27T17:52:46.589Z,26.45
2019-06-27T17:55:14.423Z,26.51
2019-06-27T17:57:42.451Z,26.33
2019-06-27T18:00:10.938Z,26.19
2019-06-27T18:02:38.768Z,25.95
2019-06-27T18:05:06.621Z,26.04
2019-06-27T18:07:34.689Z,25.90
2019-06-27T18:10:02.703Z,25.79
2019-06-27T18:12:30.553Z,25.82
2019-06-27T18:14:58.394Z,25.88
2019-06-27T18:17:33.405Z,25.80
2019-06-27T18:19:56.016Z,25.61
2019-06-27T18:22:23.834Z,25.56
2019-06-27T18:24:51.685Z,25.64
2019-06-27T18:27:19.792Z,25.35
2019-06-27T18:29:48.188Z,25.37
2019-06-27T18:32:16.365Z,25.28
2019-06-27T18:34:44.214Z,25.11
2019-06-27T18:37:12.029Z,25.27
2019-06-27T18:39:39.876Z,25.31
2019-06-27T18:42:07.986Z,25.33
2019-06-27T18:44:35.853Z,24.99
2019-06-27T18:47:03.682Z,24.94
2019-06-27T18:49:31.565Z,24.87
2019-06-27T18:52:00.522Z,24.68
2019-06-27T18:54:28.353Z,24.54
2019-06-27T18:56:56.179Z,24.72
2019-06-27T18:59:24.807Z,24.65
2019-06-27T19:01:52.639Z,24.49
2019-06-27T19:04:20.442Z,24.26
2019-06-27T19:06:48.268Z,24.39
2019-06-27T19:09:17.541Z,24.40
2019-06-27T19:11:45.552Z,24.16
2019-06-27T19:14:13.391Z,23.95
2019-06-27T19:16:41.277Z,23.82
2019-06-27T19:19:11.920Z,23.88
2019-06-27T19:21:53.801Z,23.97
2019-06-27T19:24:32.329Z,24.00
2019-06-27T19:27:00.170Z,23.71
2019-06-27T19:29:28.063Z,23.70
2019-06-27T19:31:57.507Z,23.47
2019-06-27T19:34:25.341Z,23.33
2019-06-27T19:36:54.373Z,23.18
2019-06-27T19:39:22.200Z,23.03
2019-06-27T19:41:52.814Z,22.92
2019-06-27T19:44:20.755Z,22.83
2019-06-27T19:46:48.614Z,22.75
2019-06-27T19:49:16.457Z,22.66
2019-06-27T19:51:44.296Z,22.57
2019-06-27T19:54:12.163Z,22.50
2019-06-27T19:56:40.091Z,22.45
2019-06-27T19:59:07.910Z,22.34
2019-06-27T20:01:35.803Z,22.25
2019-06-27T20:04:03.789Z,22.20
2019-06-27T20:06:31.627Z,22.19
2019-06-27T20:08:59.469Z,22.12
2019-06-27T20:11:27.504Z,22.08
2019-06-27T20:13:55.411Z,22.01
2019-06-27T20:16:24.481Z,21.94
2019-06-27T20:18:52.395Z,21.88
2019-06-27T20:21:20.528Z,21.80
2019-06-27T20:23:48.371Z,21.70
2019-06-27T20:26:17.702Z,21.65
2019-06-27T20:28:45.531Z,21.61
2019-06-27T20:31:13.418Z,21.56
2019-06-27T20:33:41.231Z,21.46
2019-06-27T20:36:09.051Z,21.40
2019-06-27T20:38:36.831Z,21.34
2019-06-27T20:41:04.667Z,21.29
2019-06-27T20:43:32.589Z,21.21
2019-06-27T20:46:00.392Z,21.12
2019-06-27T20:48:28.249Z,21.06
2019-06-27T20:50:56.107Z,20.95
2019-06-27T20:53:24.098Z,20.91
2019-06-27T20:55:51.966Z,20.82
2019-06-27T20:58:19.873Z,20.78
2019-06-27T21:00:47.693Z,20.73
2019-06-27T21:03:15.610Z,20.68
2019-06-27T21:05:43.831Z,20.58
2019-06-27T21:08:11.677Z,20.53
2019-06-27T21:10:39.574Z,20.46
2019-06-27T21:13:07.449Z,20.38
2019-06-27T21:15:35.302Z,20.33
2019-06-27T21:18:03.292Z,20.31
2019-06-27T21:20:31.361Z,20.25
2019-06-27T21:22:59.251Z,20.18
2019-06-27T21:25:27.106Z,20.11
2019-06-27T21:27:55.003Z,20.05
2019-06-27T21:30:24.513Z,20.01
2019-06-27T21:32:52.575Z,19.93
2019-06-27T21:35:20.369Z,19.90
2019-06-27T21:37:48.211Z,19.85
2019-06-27T21:40:16.959Z,19.77
2019-06-27T21:42:44.812Z,19.74
2019-06-27T21:45:14.039Z,19.71
2019-06-27T21:47:42.192Z,19.70
2019-06-27T21:50:11.229Z,19.66
2019-06-27T21:52:39.052Z,19.58
2019-06-27T21:55:07.480Z,19.50
2019-06-27T21:57:35.305Z,19.43
2019-06-27T22:00:06.703Z,19.43
2019-06-27T22:02:35.564Z,19.43
2019-06-27T22:05:08.442Z,19.46
2019-06-27T22:07:36.246Z,19.36
2019-06-27T22:10:04.599Z,19.27
2019-06-27T22:12:34.457Z,19.21
2019-06-27T22:15:02.260Z,19.18
2019-06-27T22:17:30.372Z,19.12
2019-06-27T22:20:13.954Z,19.08
2019-06-27T22:22:31.083Z,19.05
2019-06-27T22:24:59.490Z,19.01
2019-06-27T22:27:27.334Z,18.97
2019-06-27T22:29:55.424Z,18.89
2019-06-27T22:32:24.741Z,18.86
2019-06-27T22:34:53.333Z,18.79
2019-06-27T22:37:23.738Z,18.75
2019-06-27T22:40:11.958Z,18.72
2019-06-27T22:42:58.527Z,18.67
2019-06-27T22:45:44.876Z,18.72
2019-06-27T22:48:13.985Z,18.62
2019-06-27T22:51:20.717Z,18.59
2019-06-27T22:54:01.709Z,18.53
2019-06-27T22:56:29.621Z,18.46
2019-06-27T22:58:57.515Z,18.36
2019-06-27T23:01:25.695Z,18.33
2019-06-27T23:03:53.515Z,18.25
2019-06-27T23:06:21.337Z,18.20
2019-06-27T23:08:49.145Z,18.16
2019-06-27T23:11:16.980Z,18.10
2019-06-27T23:13:44.777Z,18.04
2019-06-27T23:16:12.783Z,17.97
2019-06-27T23:18:40.690Z,17.90
2019-06-27T23:21:08.525Z,17.85
2019-06-27T23:23:36.664Z,17.81
2019-06-27T23:26:04.858Z,17.81
2019-06-27T23:28:33.764Z,17.79
2019-06-27T23:31:01.633Z,17.76
2019-06-27T23:33:29.439Z,17.75
2019-06-27T23:35:57.241Z,17.67
2019-06-27T23:38:25.042Z,17.67
2019-06-27T23:40:52.938Z,17.60
2019-06-27T23:43:20.822Z,17.60
2019-06-27T23:45:48.645Z,17.56
2019-06-27T23:48:16.478Z,17.56
2019-06-27T23:50:44.194Z,17.56
2019-06-27T23:53:13.209Z,17.54
2019-06-27T23:55:43.936Z,17.73
2019-06-27T23:58:12.093Z,17.71
